Time;durP1;ratioP1;P1;durP2;ratioP2;P2;SDS_P1;SDS_P2;PMS_P1;PMS_P2;Temp;Humidity;BMP_temperature;BMP_pressure;BME280_temperature;BME280_humidity;BME280_pressure;Samples;Min_cycle;Max_cycle;Signal;HPM_P1;HPM_P2
2021/07/13 00:01:46;;;;;;;11.93;11.33;;;21.00;99.90;;;;;;4972808;28;20843;-67
2021/07/13 00:04:13;;;;;;;11.83;11.33;;;21.00;99.90;;;;;;4972670;28;20463;-68
2021/07/13 00:06:40;;;;;;;12.20;11.60;;;21.00;99.90;;;;;;4972828;28;20455;-66
2021/07/13 00:09:07;;;;;;;12.53;11.63;;;20.90;99.90;;;;;;4972649;28;20934;-67
2021/07/13 00:11:34;;;;;;;11.33;10.73;;;20.80;99.90;;;;;;4972426;28;20491;-67
2021/07/13 00:14:02;;;;;;;11.93;11.33;;;20.90;99.90;;;;;;4972795;28;20824;-67
2021/07/13 00:16:29;;;;;;;12.50;11.60;;;20.90;99.90;;;;;;4972837;28;20451;-67
2021/07/13 00:18:55;;;;;;;12.10;11.40;;;20.90;99.90;;;;;;4972128;28;20466;-68
2021/07/13 00:21:22;;;;;;;11.43;10.90;;;20.90;99.90;;;;;;4972292;28;20448;-67
2021/07/13 00:23:49;;;;;;;10.80;10.20;;;20.80;99.90;;;;;;4972500;28;20463;-68
2021/07/13 00:26:15;;;;;;;11.60;10.90;;;20.80;99.90;;;;;;4972534;28;20795;-67
2021/07/13 00:28:42;;;;;;;11.67;10.97;;;20.80;99.90;;;;;;4972088;28;20452;-68
2021/07/13 00:31:10;;;;;;;11.27;10.60;;;20.80;99.90;;;;;;4972085;28;20495;-67
2021/07/13 00:33:37;;;;;;;10.20;9.50;;;20.80;99.90;;;;;;4971988;28;20458;-68
2021/07/13 00:36:04;;;;;;;10.70;10.20;;;20.80;99.90;;;;;;4972208;28;20478;-68
2021/07/13 00:38:31;;;;;;;11.60;10.90;;;20.70;99.90;;;;;;4971850;28;20448;-67
2021/07/13 00:40:58;;;;;;;13.57;12.50;;;20.80;99.90;;;;;;4971854;28;20478;-67
2021/07/13 00:43:25;;;;;;;12.50;11.70;;;20.80;99.90;;;;;;4971943;28;21016;-68
2021/07/13 00:45:51;;;;;;;12.23;11.53;;;20.70;99.90;;;;;;4971864;28;20460;-68
2021/07/13 00:48:21;;;;;;;11.30;10.70;;;20.70;99.90;;;;;;4971978;28;20455;-68
2021/07/13 00:50:48;;;;;;;10.80;10.37;;;20.70;99.90;;;;;;4971976;28;20523;-69
2021/07/13 00:53:16;;;;;;;11.40;10.90;;;20.50;99.90;;;;;;4972268;28;20459;-68
2021/07/13 00:55:42;;;;;;;11.43;10.73;;;20.60;99.90;;;;;;4971791;28;20451;-68
2021/07/13 00:58:09;;;;;;;11.17;10.60;;;20.60;99.90;;;;;;4971381;28;20467;-67
2021/07/13 01:00:36;;;;;;;11.00;10.30;;;20.60;99.90;;;;;;4971722;28;20447;-68
2021/07/13 01:03:05;;;;;;;11.30;10.70;;;20.50;99.90;;;;;;4971887;28;20482;-68
2021/07/13 01:05:39;;;;;;;10.30;9.80;;;20.50;99.90;;;;;;4971924;28;20455;-67
2021/07/13 01:08:22;;;;;;;10.70;10.20;;;20.50;99.90;;;;;;4971864;28;20436;-68
2021/07/13 01:10:56;;;;;;;10.60;9.80;;;20.40;99.90;;;;;;4971757;28;20494;-68
2021/07/13 01:13:29;;;;;;;11.43;10.93;;;20.30;99.90;;;;;;4971682;28;20533;-68
2021/07/13 01:16:03;;;;;;;10.50;10.10;;;20.40;99.90;;;;;;4971651;28;20848;-67
2021/07/13 01:18:33;;;;;;;11.60;11.10;;;20.30;99.90;;;;;;4971732;28;20964;-68
2021/07/13 01:21:42;;;;;;;11.57;10.90;;;20.30;99.90;;;;;;4971651;28;20444;-68
2021/07/13 01:24:49;;;;;;;12.00;11.40;;;20.40;99.90;;;;;;4971531;28;20458;-68
2021/07/13 01:27:38;;;;;;;13.07;12.30;;;20.30;99.90;;;;;;4971597;28;20946;-68
2021/07/13 01:30:10;;;;;;;12.40;11.80;;;20.30;99.90;;;;;;4971156;28;20487;-68
2021/07/13 01:32:37;;;;;;;12.60;12.00;;;20.20;99.90;;;;;;4971297;28;20456;-68
2021/07/13 01:35:07;;;;;;;12.20;11.70;;;20.20;99.90;;;;;;4971407;28;20476;-68
2021/07/13 01:37:36;;;;;;;12.63;11.83;;;20.10;99.90;;;;;;4971300;28;20488;-68
2021/07/13 01:40:09;;;;;;;13.23;12.40;;;20.10;99.90;;;;;;4973040;28;20458;-68
2021/07/13 01:42:39;;;;;;;14.27;13.37;;;20.20;99.90;;;;;;4975348;28;20954;-68
2021/07/13 01:45:08;;;;;;;14.60;13.67;;;20.20;99.90;;;;;;4975284;28;20487;-69
2021/07/13 01:47:36;;;;;;;13.20;12.23;;;20.30;99.90;;;;;;4975246;28;20462;-68
2021/07/13 01:50:04;;;;;;;12.10;11.40;;;20.20;99.90;;;;;;4975205;28;20462;-68
2021/07/13 01:52:31;;;;;;;13.67;12.87;;;20.00;99.90;;;;;;4975169;28;20443;-68
2021/07/13 01:54:58;;;;;;;19.93;18.63;;;19.90;99.90;;;;;;4975770;28;20463;-67
2021/07/13 01:57:28;;;;;;;19.67;18.97;;;19.90;99.90;;;;;;4975096;28;20448;-68
2021/07/13 01:59:55;;;;;;;21.60;20.50;;;19.70;99.90;;;;;;4974742;28;20447;-67
2021/07/13 02:02:25;;;;;;;23.57;22.10;;;19.60;99.90;;;;;;4975028;28;20450;-69
2021/07/13 02:04:53;;;;;;;24.90;23.60;;;19.50;99.90;;;;;;4974829;28;20964;-68
2021/07/13 02:07:22;;;;;;;27.10;25.70;;;19.50;99.90;;;;;;4974721;28;20462;-67
2021/07/13 02:09:49;;;;;;;29.70;28.20;;;19.50;99.90;;;;;;4975299;28;20455;-69
2021/07/13 02:12:17;;;;;;;31.73;29.83;;;19.50;99.90;;;;;;4974857;28;20957;-69
2021/07/13 02:14:45;;;;;;;31.80;30.00;;;19.30;99.90;;;;;;4974954;28;20491;-69
2021/07/13 02:17:12;;;;;;;31.77;30.07;;;19.30;99.90;;;;;;4974626;28;20470;-69
2021/07/13 02:19:40;;;;;;;32.50;30.80;;;19.10;99.90;;;;;;4974646;28;20463;-68
2021/07/13 02:22:08;;;;;;;34.30;32.50;;;19.00;99.90;;;;;;4974589;28;20451;-70
2021/07/13 02:24:35;;;;;;;34.40;32.60;;;19.00;99.90;;;;;;4974636;28;20460;-70
2021/07/13 02:27:07;;;;;;;33.10;31.30;;;19.00;99.90;;;;;;4974519;28;20945;-69
2021/07/13 02:29:39;;;;;;;32.60;30.90;;;19.00;99.90;;;;;;4974595;28;20459;-70
2021/07/13 02:32:12;;;;;;;33.20;31.50;;;18.90;99.90;;;;;;4974509;28;20498;-69
2021/07/13 02:34:44;;;;;;;34.33;32.73;;;18.90;99.90;;;;;;4974342;28;20483;-69
2021/07/13 02:37:13;;;;;;;35.70;34.00;;;18.80;99.90;;;;;;4974120;28;20846;-70
2021/07/13 02:39:42;;;;;;;34.83;33.00;;;18.90;99.90;;;;;;4974619;28;20503;-70
2021/07/13 02:42:10;;;;;;;36.10;34.00;;;18.80;99.90;;;;;;4973894;28;20490;-71
2021/07/13 02:44:37;;;;;;;36.10;34.10;;;18.90;99.90;;;;;;4974079;28;20459;-71
2021/07/13 02:47:06;;;;;;;36.10;34.27;;;18.80;99.90;;;;;;4974219;28;20463;-71
2021/07/13 02:49:38;;;;;;;37.30;35.20;;;18.80;99.90;;;;;;4974092;28;20451;-71
2021/07/13 02:52:08;;;;;;;36.50;34.67;;;18.90;99.90;;;;;;4973905;28;20527;-71
2021/07/13 02:54:38;;;;;;;36.93;35.03;;;18.90;99.90;;;;;;4973957;28;20456;-71
2021/07/13 02:57:06;;;;;;;35.50;33.60;;;18.90;99.90;;;;;;4973719;28;20448;-71
2021/07/13 02:59:35;;;;;;;37.23;35.43;;;18.90;99.90;;;;;;4974073;28;20471;-71
2021/07/13 03:02:02;;;;;;;35.57;33.57;;;18.90;99.90;;;;;;4974072;28;20452;-71
2021/07/13 03:04:30;;;;;;;36.87;35.00;;;18.90;99.90;;;;;;4973630;28;20459;-71
2021/07/13 03:06:57;;;;;;;38.30;36.40;;;18.80;99.90;;;;;;4973771;28;20459;-70
2021/07/13 03:09:25;;;;;;;36.90;34.80;;;18.80;99.90;;;;;;4973503;28;20467;-71
2021/07/13 03:11:52;;;;;;;36.90;35.00;;;18.70;99.90;;;;;;4973515;28;20488;-71
2021/07/13 03:14:20;;;;;;;36.73;35.03;;;18.70;99.90;;;;;;4973600;28;20880;-71
2021/07/13 03:16:50;;;;;;;36.70;34.73;;;18.70;99.90;;;;;;4973777;28;20807;-71
2021/07/13 03:19:17;;;;;;;36.23;34.43;;;18.70;99.90;;;;;;4973615;28;20471;-71
2021/07/13 03:21:50;;;;;;;37.03;35.13;;;18.70;99.90;;;;;;4973622;28;20436;-72
2021/07/13 03:24:17;;;;;;;36.13;34.03;;;18.70;99.90;;;;;;4973774;28;20839;-73
2021/07/13 03:26:47;;;;;;;36.80;34.63;;;18.70;99.90;;;;;;4973365;28;20456;-71
2021/07/13 03:29:14;;;;;;;37.50;35.40;;;18.70;99.90;;;;;;4973183;28;20459;-72
2021/07/13 03:31:43;;;;;;;35.93;34.13;;;18.60;99.90;;;;;;4973061;28;21013;-71
2021/07/13 03:34:11;;;;;;;38.53;36.57;;;18.70;99.90;;;;;;4973098;28;20717;-70
2021/07/13 03:36:39;;;;;;;37.13;35.33;;;18.70;99.90;;;;;;4968013;28;20484;-70
2021/07/13 03:39:07;;;;;;;38.53;36.03;;;18.60;99.90;;;;;;4954102;29;20463;-71
2021/07/13 03:41:35;;;;;;;38.60;36.60;;;18.60;99.90;;;;;;4953564;29;20456;-71
2021/07/13 03:44:05;;;;;;;38.37;36.43;;;18.60;99.90;;;;;;4954117;29;20820;-70
2021/07/13 03:46:34;;;;;;;36.97;34.97;;;18.60;99.90;;;;;;4954141;29;20460;-71
2021/07/13 03:49:03;;;;;;;35.53;33.80;;;18.60;99.90;;;;;;4953552;29;20452;-70
2021/07/13 03:51:42;;;;;;;35.20;33.40;;;18.50;99.90;;;;;;4953915;29;20484;-71
2021/07/13 03:54:10;;;;;;;35.53;33.83;;;18.60;99.90;;;;;;4953603;29;20448;-71
2021/07/13 03:56:37;;;;;;;36.60;34.43;;;18.60;99.90;;;;;;4953410;29;20460;-71
2021/07/13 03:59:05;;;;;;;35.20;33.50;;;18.60;99.90;;;;;;4953035;29;20922;-72
2021/07/13 04:01:32;;;;;;;35.03;33.30;;;18.50;99.90;;;;;;4953411;29;20457;-71
2021/07/13 04:04:00;;;;;;;34.50;32.80;;;18.60;99.90;;;;;;4953173;29;20453;-71
2021/07/13 04:06:26;;;;;;;34.33;32.30;;;18.50;99.90;;;;;;4953086;29;20452;-71
2021/07/13 04:08:53;;;;;;;34.90;33.00;;;18.60;99.90;;;;;;4953182;29;20448;-71
2021/07/13 04:11:20;;;;;;;35.30;33.50;;;18.60;99.90;;;;;;4953248;29;20483;-72
2021/07/13 04:13:46;;;;;;;34.07;32.30;;;18.60;99.90;;;;;;4953500;29;20453;-71
2021/07/13 04:16:14;;;;;;;34.87;33.07;;;18.70;99.90;;;;;;4953193;29;20461;-71
2021/07/13 04:18:41;;;;;;;35.67;33.83;;;18.70;99.90;;;;;;4953084;29;20460;-72
2021/07/13 04:21:08;;;;;;;35.10;33.30;;;18.70;99.90;;;;;;4953134;29;20456;-71
2021/07/13 04:23:35;;;;;;;36.53;34.43;;;18.70;99.90;;;;;;4952992;29;20572;-71
2021/07/13 04:26:02;;;;;;;36.57;34.23;;;18.70;99.90;;;;;;4953208;29;20959;-72
2021/07/13 04:28:30;;;;;;;35.97;34.00;;;18.70;99.90;;;;;;4953057;29;20460;-72
2021/07/13 04:30:57;;;;;;;34.90;32.90;;;18.80;99.90;;;;;;4952780;29;20559;-72
2021/07/13 04:33:26;;;;;;;35.37;33.37;;;18.90;99.90;;;;;;4952616;29;20480;-71
2021/07/13 04:35:52;;;;;;;35.27;33.37;;;19.00;99.90;;;;;;4952666;28;20480;-72
2021/07/13 04:38:19;;;;;;;35.43;33.50;;;18.90;99.90;;;;;;4970737;28;20482;-71
2021/07/13 04:40:46;;;;;;;35.40;33.40;;;19.00;99.90;;;;;;4972371;28;20448;-72
2021/07/13 04:43:13;;;;;;;34.57;32.70;;;19.10;99.90;;;;;;4971954;28;20463;-72
2021/07/13 04:45:41;;;;;;;33.90;32.20;;;19.30;99.90;;;;;;4971957;28;20505;-71
2021/07/13 04:48:09;;;;;;;35.00;33.03;;;19.20;99.90;;;;;;4971499;28;20503;-71
2021/07/13 04:50:37;;;;;;;34.10;32.20;;;19.40;99.90;;;;;;4972302;28;20455;-70
2021/07/13 04:53:04;;;;;;;34.57;32.77;;;19.50;99.90;;;;;;4972038;28;20578;-70
2021/07/13 04:55:31;;;;;;;33.47;31.67;;;19.60;99.90;;;;;;4972001;28;20969;-71
2021/07/13 04:57:57;;;;;;;32.27;30.77;;;19.60;99.90;;;;;;4971902;28;20467;-71
2021/07/13 05:00:24;;;;;;;32.40;30.80;;;19.50;99.90;;;;;;4971680;28;20456;-71
2021/07/13 05:02:51;;;;;;;30.83;29.30;;;19.50;99.90;;;;;;4971343;28;20451;-72
2021/07/13 05:05:17;;;;;;;28.50;27.30;;;19.50;99.90;;;;;;4971958;28;20463;-71
2021/07/13 05:07:47;;;;;;;26.93;25.60;;;19.60;99.90;;;;;;4971853;28;20466;-71
2021/07/13 05:10:15;;;;;;;24.90;23.70;;;19.60;99.90;;;;;;4972138;28;20518;-71
2021/07/13 05:12:42;;;;;;;24.90;23.80;;;19.60;99.90;;;;;;4971246;28;20491;-72
2021/07/13 05:15:10;;;;;;;23.17;22.20;;;19.90;99.90;;;;;;4970875;28;20467;-71
2021/07/13 05:17:38;;;;;;;21.73;20.83;;;20.20;99.90;;;;;;4971351;28;20459;-72
2021/07/13 05:20:06;;;;;;;18.60;17.80;;;20.50;99.90;;;;;;4971594;28;20468;-72
2021/07/13 05:22:33;;;;;;;17.00;16.30;;;20.80;99.90;;;;;;4971519;28;20455;-72
2021/07/13 05:25:03;;;;;;;15.93;15.23;;;21.20;99.90;;;;;;4971963;28;20510;-72
2021/07/13 05:27:32;;;;;;;15.90;15.27;;;21.40;99.90;;;;;;4971534;28;20456;-72
2021/07/13 05:29:59;;;;;;;14.20;13.50;;;21.70;99.90;;;;;;4971849;28;20455;-72
2021/07/13 05:32:25;;;;;;;13.50;12.90;;;22.20;99.90;;;;;;4977635;28;20874;-72
2021/07/13 05:34:52;;;;;;;14.00;13.00;;;22.40;99.90;;;;;;4989054;28;20470;-72
2021/07/13 05:37:19;;;;;;;13.87;13.20;;;22.60;99.90;;;;;;4986618;28;20474;-71
2021/07/13 05:39:45;;;;;;;14.27;13.60;;;22.50;99.90;;;;;;4989532;28;21169;-71
2021/07/13 05:42:13;;;;;;;13.83;13.33;;;22.20;99.90;;;;;;4989246;28;20450;-71
2021/07/13 05:44:40;;;;;;;14.23;13.50;;;22.10;99.90;;;;;;4989442;28;20439;-71
2021/07/13 05:47:07;;;;;;;13.43;12.93;;;21.90;99.90;;;;;;4989170;28;20450;-71
2021/07/13 05:49:33;;;;;;;14.50;13.93;;;21.70;99.90;;;;;;4988918;28;21071;-71
2021/07/13 05:52:00;;;;;;;14.50;13.90;;;21.50;99.90;;;;;;4987191;28;20509;-72
2021/07/13 05:54:27;;;;;;;14.17;13.47;;;21.30;99.90;;;;;;4989223;28;20474;-72
2021/07/13 05:56:54;;;;;;;13.93;13.43;;;21.20;99.90;;;;;;4988905;28;20439;-72
2021/07/13 05:59:22;;;;;;;14.03;13.47;;;21.20;99.90;;;;;;4989829;28;20498;-73
2021/07/13 06:01:49;;;;;;;14.37;13.67;;;21.20;99.90;;;;;;4990631;28;20462;-69
2021/07/13 06:04:15;;;;;;;15.63;14.93;;;21.20;99.90;;;;;;4990406;28;20826;-71
2021/07/13 06:06:42;;;;;;;15.70;15.00;;;21.10;99.90;;;;;;4990443;28;20455;-70
2021/07/13 06:09:09;;;;;;;14.93;14.23;;;21.10;99.90;;;;;;4990523;28;20447;-71
2021/07/13 06:11:35;;;;;;;13.80;13.20;;;21.00;99.90;;;;;;4990193;28;20490;-72
2021/07/13 06:14:02;;;;;;;15.03;14.20;;;20.90;99.90;;;;;;4990634;28;20941;-72
2021/07/13 06:16:30;;;;;;;14.77;13.97;;;20.80;99.90;;;;;;4990620;28;20443;-72
2021/07/13 06:18:57;;;;;;;14.27;13.57;;;20.80;99.90;;;;;;4990317;28;20513;-70
2021/07/13 06:21:23;;;;;;;15.50;14.60;;;20.70;99.90;;;;;;4987048;28;20536;-70
2021/07/13 06:23:50;;;;;;;16.53;15.07;;;20.70;99.90;;;;;;4989953;28;20451;-73
2021/07/13 06:26:17;;;;;;;15.67;14.97;;;20.70;99.90;;;;;;4991784;28;20461;-72
2021/07/13 06:28:43;;;;;;;20.07;19.07;;;20.70;99.90;;;;;;4992136;28;20941;-71
2021/07/13 06:31:10;;;;;;;20.17;19.27;;;20.70;99.90;;;;;;4992132;28;20455;-71
2021/07/13 06:33:39;;;;;;;19.50;18.43;;;20.70;99.90;;;;;;4992062;28;20482;-71
2021/07/13 06:36:07;;;;;;;17.17;16.57;;;20.70;99.90;;;;;;4991724;28;20463;-70
2021/07/13 06:38:33;;;;;;;18.40;17.60;;;20.60;99.90;;;;;;4992457;28;20505;-72
2021/07/13 06:41:00;;;;;;;18.03;17.20;;;20.70;99.90;;;;;;4992560;28;20442;-73
2021/07/13 06:46:54;;;;;;;19.17;18.27;;;20.90;99.90;;;;;;4968996;28;20490;-72
2021/07/13 06:49:22;;;;;;;19.77;18.87;;;21.00;99.90;;;;;;4973971;28;20455;-72
2021/07/13 06:51:49;;;;;;;19.83;18.90;;;21.00;99.90;;;;;;4973908;28;20491;-69
2021/07/13 06:54:15;;;;;;;19.93;18.90;;;20.90;99.90;;;;;;4972381;28;20487;-71
2021/07/13 06:56:42;;;;;;;19.87;18.77;;;20.90;99.90;;;;;;4973565;28;20447;-72
2021/07/13 06:59:09;;;;;;;18.87;17.93;;;20.90;99.90;;;;;;4973550;28;20865;-73
2021/07/13 07:01:35;;;;;;;19.20;18.10;;;20.90;99.90;;;;;;4973411;28;20799;-73
2021/07/13 07:04:02;;;;;;;17.67;16.80;;;20.80;99.90;;;;;;4973792;28;20459;-72
2021/07/13 07:06:30;;;;;;;17.00;16.20;;;20.80;99.90;;;;;;4973591;28;20467;-72
2021/07/13 07:08:57;;;;;;;17.70;16.90;;;20.90;99.90;;;;;;4973492;28;20464;-72
2021/07/13 07:11:24;;;;;;;18.13;17.00;;;20.90;99.90;;;;;;4973515;28;20451;-73
2021/07/13 07:13:51;;;;;;;16.30;15.50;;;20.80;99.90;;;;;;4973467;28;20448;-73
2021/07/13 07:16:18;;;;;;;17.13;16.03;;;20.80;99.90;;;;;;4973578;28;20451;-72
2021/07/13 07:18:45;;;;;;;16.70;15.80;;;20.70;99.90;;;;;;4973665;28;20454;-73
2021/07/13 07:21:12;;;;;;;18.30;17.30;;;20.60;99.90;;;;;;4973289;28;20452;-73
2021/07/13 07:23:40;;;;;;;21.00;19.70;;;20.80;99.90;;;;;;4973246;28;20555;-72
2021/07/13 07:26:07;;;;;;;22.00;21.00;;;20.70;99.90;;;;;;4973033;28;20455;-73
2021/07/13 07:28:34;;;;;;;23.63;22.20;;;20.70;99.90;;;;;;4973153;28;20439;-74
2021/07/13 07:31:01;;;;;;;29.17;27.77;;;20.70;99.90;;;;;;4973286;28;20459;-77
2021/07/13 07:33:28;;;;;;;29.10;27.80;;;20.60;99.90;;;;;;4973231;28;20487;-78
2021/07/13 07:35:54;;;;;;;31.50;30.10;;;20.40;99.90;;;;;;4972868;28;20985;-77
2021/07/13 07:38:21;;;;;;;34.30;32.70;;;20.30;99.90;;;;;;4953310;28;20491;-77
2021/07/13 07:40:49;;;;;;;34.70;33.20;;;20.30;99.90;;;;;;4953883;29;20455;-76
2021/07/13 07:43:16;;;;;;;35.10;33.50;;;20.10;99.90;;;;;;4953810;29;20947;-76
2021/07/13 07:45:43;;;;;;;35.30;33.60;;;20.00;99.90;;;;;;4953333;29;20556;-77
2021/07/13 07:48:09;;;;;;;36.63;35.03;;;19.80;99.90;;;;;;4953642;29;20461;-76
2021/07/13 07:50:36;;;;;;;37.97;36.00;;;19.80;99.90;;;;;;4953509;29;20452;-76
2021/07/13 07:53:03;;;;;;;36.30;34.60;;;19.80;99.90;;;;;;4953455;29;20540;-76
2021/07/13 07:55:32;;;;;;;37.53;35.73;;;19.80;99.90;;;;;;4953639;29;20479;-76
2021/07/13 07:58:00;;;;;;;37.47;35.80;;;19.70;99.90;;;;;;4953525;29;20452;-75
2021/07/13 08:00:27;;;;;;;40.37;38.47;;;19.70;99.90;;;;;;4953233;29;20464;-75
2021/07/13 08:02:54;;;;;;;40.00;37.97;;;19.70;99.90;;;;;;4953165;29;20445;-75
2021/07/13 08:05:24;;;;;;;38.40;36.47;;;19.70;99.90;;;;;;4952804;29;20461;-76
2021/07/13 08:07:51;;;;;;;38.77;37.03;;;19.70;99.90;;;;;;4953312;29;20475;-75
2021/07/13 08:10:18;;;;;;;37.00;35.30;;;19.60;99.90;;;;;;4953157;29;20456;-76
2021/07/13 08:12:45;;;;;;;39.70;37.50;;;19.70;99.90;;;;;;4953210;29;20499;-77
2021/07/13 08:15:15;;;;;;;41.87;39.87;;;19.60;99.90;;;;;;4952911;29;20966;-77
2021/07/13 08:17:43;;;;;;;40.90;38.50;;;19.60;99.90;;;;;;4952976;29;20459;-78
2021/07/13 08:20:13;;;;;;;42.33;39.67;;;19.70;99.90;;;;;;4952904;29;20472;-78
2021/07/13 08:22:43;;;;;;;42.27;39.97;;;19.80;99.90;;;;;;4952853;29;20566;-77
2021/07/13 08:25:11;;;;;;;42.23;39.90;;;20.10;99.90;;;;;;4953220;29;20467;-75
2021/07/13 08:27:37;;;;;;;40.60;38.70;;;20.10;99.90;;;;;;4952843;29;20464;-76
2021/07/13 08:30:05;;;;;;;39.93;38.00;;;20.00;99.90;;;;;;4952941;29;20452;-75
2021/07/13 08:32:33;;;;;;;40.20;38.20;;;20.10;99.90;;;;;;4952741;29;20488;-75
2021/07/13 08:35:00;;;;;;;39.70;37.80;;;20.10;99.90;;;;;;4952859;28;20476;-74
2021/07/13 08:37:29;;;;;;;38.80;36.90;;;20.10;99.90;;;;;;4963904;28;21000;-74
2021/07/13 08:39:56;;;;;;;39.13;37.43;;;20.10;99.90;;;;;;4971656;28;20464;-73
2021/07/13 08:42:24;;;;;;;33.93;32.37;;;20.10;99.90;;;;;;4971662;28;20595;-74
2021/07/13 08:44:50;;;;;;;35.00;33.20;;;20.20;99.90;;;;;;4971616;28;20995;-74
2021/07/13 08:47:18;;;;;;;35.73;34.00;;;20.30;99.90;;;;;;4971836;28;20459;-74
2021/07/13 08:49:49;;;;;;;33.77;32.13;;;20.30;99.90;;;;;;4971773;28;20463;-73
2021/07/13 08:52:15;;;;;;;32.80;31.30;;;20.50;99.90;;;;;;4971788;28;20452;-73
2021/07/13 08:54:42;;;;;;;32.80;31.20;;;20.40;99.90;;;;;;4971653;28;20455;-74
2021/07/13 08:57:10;;;;;;;31.30;29.80;;;20.40;99.90;;;;;;4971470;28;20958;-73
2021/07/13 08:59:37;;;;;;;31.70;30.30;;;20.40;99.90;;;;;;4971411;28;20451;-73
2021/07/13 09:02:04;;;;;;;30.70;29.30;;;20.40;99.90;;;;;;4971238;28;20460;-73
2021/07/13 09:04:35;;;;;;;30.17;28.67;;;20.40;99.90;;;;;;4971721;28;20456;-73
2021/07/13 09:07:07;;;;;;;28.57;27.03;;;20.30;99.90;;;;;;4971686;28;20448;-73
2021/07/13 09:09:35;;;;;;;28.83;27.53;;;20.40;99.90;;;;;;4971484;28;20540;-73
2021/07/13 09:12:14;;;;;;;29.23;27.37;;;20.30;99.90;;;;;;4971744;28;20463;-74
2021/07/13 09:14:50;;;;;;;29.70;28.10;;;20.30;99.90;;;;;;4971017;28;20451;-73
2021/07/13 09:17:31;;;;;;;34.53;32.93;;;20.30;99.90;;;;;;4971433;28;20478;-75
2021/07/13 09:19:59;;;;;;;38.80;36.90;;;20.30;99.90;;;;;;4971315;28;20455;-75
2021/07/13 09:22:27;;;;;;;40.37;38.43;;;20.10;99.90;;;;;;4971179;28;20571;-74
2021/07/13 09:24:54;;;;;;;41.50;39.40;;;19.80;99.90;;;;;;4971154;28;20825;-75
2021/07/13 09:27:22;;;;;;;38.70;36.60;;;19.60;99.90;;;;;;4971245;28;20485;-76
2021/07/13 09:29:50;;;;;;;37.67;35.97;;;19.60;99.90;;;;;;4971128;28;20542;-75
2021/07/13 09:32:29;;;;;;;37.50;35.90;;;19.50;99.90;;;;;;4971161;28;20463;-75
2021/07/13 09:34:58;;;;;;;35.77;34.13;;;19.40;99.90;;;;;;4971257;28;20479;-75
2021/07/13 09:37:28;;;;;;;35.03;33.63;;;18.90;99.90;;;;;;4970970;28;20491;-75
2021/07/13 09:40:04;;;;;;;36.67;35.27;;;18.70;99.90;;;;;;4971277;28;20846;-76
2021/07/13 09:42:33;;;;;;;38.20;36.70;;;18.60;99.90;;;;;;4971663;28;20480;-75
2021/07/13 09:45:20;;;;;;;37.30;35.80;;;18.50;99.90;;;;;;4971274;28;20868;-76
2021/07/13 09:47:47;;;;;;;35.97;34.47;;;18.60;99.90;;;;;;4971407;28;20451;-76
2021/07/13 09:50:30;;;;;;;36.40;35.00;;;18.50;99.90;;;;;;4971402;28;20533;-76
2021/07/13 09:53:02;;;;;;;36.60;35.20;;;18.50;99.90;;;;;;4971053;28;20483;-76
2021/07/13 09:55:29;;;;;;;34.70;33.33;;;18.50;99.90;;;;;;4971140;28;20455;-76
2021/07/13 09:58:09;;;;;;;33.00;31.60;;;18.20;99.90;;;;;;4971355;28;20455;-75
2021/07/13 10:00:36;;;;;;;34.33;32.83;;;18.20;99.90;;;;;;4972027;28;20470;-75
2021/07/13 10:03:03;;;;;;;33.60;32.30;;;18.20;99.90;;;;;;4975034;28;20452;-75
2021/07/13 10:05:31;;;;;;;35.80;34.40;;;18.00;99.90;;;;;;4974908;28;20459;-76
2021/07/13 10:07:58;;;;;;;33.97;32.57;;;17.90;99.90;;;;;;4974961;28;20450;-75
2021/07/13 10:10:26;;;;;;;34.30;33.00;;;17.90;99.90;;;;;;4974623;28;20829;-76
2021/07/13 10:12:54;;;;;;;34.67;33.17;;;18.00;99.90;;;;;;4974651;28;20866;-76
2021/07/13 10:15:21;;;;;;;33.90;32.60;;;17.90;99.90;;;;;;4974671;28;20458;-76
2021/07/13 10:17:48;;;;;;;34.53;33.00;;;17.90;99.90;;;;;;4974885;28;20869;-75
2021/07/13 10:20:15;;;;;;;32.20;30.90;;;17.90;99.90;;;;;;4974851;28;20945;-76
2021/07/13 10:22:43;;;;;;;34.43;33.00;;;18.00;99.90;;;;;;4974381;28;20451;-76
2021/07/13 10:25:10;;;;;;;37.33;35.83;;;18.00;99.90;;;;;;4974287;28;21149;-76
2021/07/13 10:27:41;;;;;;;38.10;36.60;;;18.20;99.90;;;;;;4974286;28;20502;-75
2021/07/13 10:30:09;;;;;;;36.47;35.00;;;18.20;99.90;;;;;;4974561;28;21112;-75
2021/07/13 10:32:38;;;;;;;34.53;33.23;;;18.20;99.90;;;;;;4974188;28;20540;-75
2021/07/13 10:35:15;;;;;;;34.63;33.33;;;18.40;99.90;;;;;;4974284;28;20472;-76
2021/07/13 10:37:45;;;;;;;34.23;33.03;;;18.60;99.90;;;;;;4974142;28;20854;-76
2021/07/13 10:40:13;;;;;;;35.13;33.53;;;18.60;99.90;;;;;;4974057;28;20455;-76
2021/07/13 10:42:50;;;;;;;34.10;32.90;;;18.40;99.90;;;;;;4974154;28;20458;-76
2021/07/13 10:45:19;;;;;;;34.37;32.97;;;18.10;99.90;;;;;;4974216;28;20538;-76
2021/07/13 10:48:10;;;;;;;33.53;32.00;;;17.80;99.90;;;;;;4974250;28;20458;-76
2021/07/13 10:50:42;;;;;;;32.60;31.30;;;17.60;99.90;;;;;;4973978;28;20460;-76
2021/07/13 10:53:23;;;;;;;29.33;28.33;;;17.50;99.90;;;;;;4973866;28;20479;-76
2021/07/13 10:55:52;;;;;;;31.93;30.63;;;17.40;99.90;;;;;;4973927;28;20463;-75
2021/07/13 10:58:29;;;;;;;30.60;29.50;;;17.20;99.90;;;;;;4973869;28;20539;-75
2021/07/13 11:01:05;;;;;;;33.37;32.17;;;17.10;99.90;;;;;;4973974;28;20459;-76
2021/07/13 11:04:00;;;;;;;31.90;30.60;;;17.00;99.90;;;;;;4973893;28;20455;-76
2021/07/13 11:06:42;;;;;;;34.90;33.50;;;17.00;99.90;;;;;;4973758;28;20822;-76
2021/07/13 11:09:36;;;;;;;34.70;33.40;;;17.20;99.90;;;;;;4973435;28;20452;-77
2021/07/13 11:12:13;;;;;;;36.30;34.90;;;17.70;99.90;;;;;;4972278;28;20564;-78
2021/07/13 11:14:58;;;;;;;34.77;33.37;;;18.00;99.90;;;;;;4973568;28;20497;-78
2021/07/13 11:17:27;;;;;;;33.47;32.27;;;17.90;99.90;;;;;;4973401;28;20491;-78
2021/07/13 11:20:06;;;;;;;33.03;31.47;;;17.80;99.90;;;;;;4973533;28;20455;-78
2021/07/13 11:22:35;;;;;;;29.90;28.80;;;17.60;99.90;;;;;;4973661;28;20465;-78
2021/07/13 11:25:01;;;;;;;29.77;28.63;;;17.40;99.90;;;;;;4973584;28;20460;-75
2021/07/13 11:27:28;;;;;;;28.67;27.60;;;17.40;99.90;;;;;;4973534;28;20491;-74
2021/07/13 11:29:56;;;;;;;28.63;27.53;;;17.40;99.90;;;;;;4973241;28;20564;-75
2021/07/13 11:32:23;;;;;;;27.20;26.30;;;17.50;99.90;;;;;;4973004;28;20451;-76
2021/07/13 11:34:49;;;;;;;26.83;25.63;;;17.50;99.90;;;;;;4973149;28;20491;-75
2021/07/13 11:37:18;;;;;;;24.63;23.73;;;17.60;99.90;;;;;;4963152;28;20484;-75
2021/07/13 11:39:45;;;;;;;22.60;21.70;;;17.60;99.90;;;;;;4954116;29;20461;-74
2021/07/13 11:42:14;;;;;;;19.27;18.57;;;17.50;99.90;;;;;;4953606;29;20456;-75
2021/07/13 11:44:43;;;;;;;18.87;18.00;;;17.40;99.90;;;;;;4953726;29;20449;-75
2021/07/13 11:47:12;;;;;;;18.93;18.13;;;17.40;99.90;;;;;;4953842;29;20643;-75
2021/07/13 11:49:42;;;;;;;20.00;19.00;;;17.50;99.90;;;;;;4953609;29;20465;-74
2021/07/13 11:52:10;;;;;;;17.50;16.70;;;17.60;99.90;;;;;;4953547;29;20457;-74
2021/07/13 11:54:38;;;;;;;16.43;15.70;;;17.80;99.90;;;;;;4953371;29;20496;-74
2021/07/13 11:57:07;;;;;;;16.03;15.43;;;17.80;99.90;;;;;;4953394;29;20464;-73
2021/07/13 11:59:35;;;;;;;16.40;15.67;;;17.90;99.90;;;;;;4953577;29;20456;-73
2021/07/13 12:02:03;;;;;;;16.20;15.60;;;17.90;99.90;;;;;;4953537;29;20815;-74
2021/07/13 12:04:37;;;;;;;15.50;14.90;;;18.10;99.90;;;;;;4953300;29;20444;-74
2021/07/13 12:07:05;;;;;;;15.37;14.77;;;18.20;99.90;;;;;;4953090;29;20812;-74
2021/07/13 12:09:32;;;;;;;14.60;14.00;;;18.30;99.90;;;;;;4953020;29;20820;-74
2021/07/13 12:12:04;;;;;;;13.83;13.33;;;18.60;99.90;;;;;;4952867;29;20943;-74
2021/07/13 12:14:31;;;;;;;13.00;12.60;;;19.10;99.90;;;;;;4952746;29;20492;-73
2021/07/13 12:16:58;;;;;;;12.20;11.73;;;19.50;99.90;;;;;;4952939;29;20452;-73
2021/07/13 12:19:27;;;;;;;11.40;11.10;;;19.90;99.90;;;;;;4953074;29;20571;-73
2021/07/13 12:21:56;;;;;;;11.73;11.33;;;19.90;99.90;;;;;;4952802;29;20488;-73
2021/07/13 12:24:30;;;;;;;11.10;10.80;;;19.80;99.90;;;;;;4952545;28;20463;-73
2021/07/13 12:26:59;;;;;;;11.80;11.40;;;19.60;99.90;;;;;;4952814;29;20511;-73
2021/07/13 12:29:35;;;;;;;11.70;11.30;;;19.80;99.90;;;;;;4952835;29;20463;-74
2021/07/13 12:32:04;;;;;;;11.90;11.50;;;20.20;99.90;;;;;;4952979;29;20459;-74
2021/07/13 12:34:32;;;;;;;12.93;12.43;;;20.10;99.90;;;;;;4952783;28;20500;-74
2021/07/13 12:37:13;;;;;;;13.00;12.50;;;20.10;99.90;;;;;;4960357;28;20487;-73
2021/07/13 12:39:41;;;;;;;13.80;13.30;;;20.50;99.90;;;;;;4972109;28;20488;-73
2021/07/13 12:42:10;;;;;;;13.33;12.83;;;20.80;99.90;;;;;;4971612;28;20447;-73